• Join FlightAware (Why Join?)
  • Login
  • US Flag 
05:46PM EDT


 

Airport Tracker/Info


-or-


 

Live Flight TrackerFlight Track Log ✈ N413QS ✈ 21-Apr-2013 ✈ KHPN - TBPB / BGI

Flight Track Log - Related Links

Times and Time Zones

All times are in EDT time to prevent confusion due to time zone crossing. See the N413QS flight status page for this flight to view local times or setup timezone preferences in your user account.

Time Position Orientation Groundspeed Altitude Reporting Facility
EDT Latitude Longitude Course Direction KTS MPH feet Rate Location/Type
01:41PM 41.0833 -73.7667 255° West 196 226 3,700  Level New York TRACON
01:42PM 41.0667 -73.8500 255° West 256 295 6,200 2,100 Climbing New York TRACON
01:43PM 40.9833 -73.8500 180° South 289 333 8,000 900 Climbing New York TRACON
01:44PM 40.9000 -73.8333 171° South 290 334 8,000 720 Level New York TRACON
01:45PM 40.8333 -73.8167 169° South 294 338 9,500 1,560 Climbing New York TRACON
01:46PM 40.7333 -73.8000 173° South 330 380 11,200 1,200 Climbing New York TRACON
01:47PM 40.6500 -73.7667 163° South 319 367 12,000 300 Climbing New York TRACON
01:49PM 40.5400 -73.6139 133° Southeast 395 455 12,100 1,080 Climbing New York Center
01:50PM 40.4700 -73.4883 126° Southeast 388 447 14,800 1,980 Climbing New York Center
01:51PM 40.4097 -73.3878 128° Southeast 393 452 16,100 1,860 Climbing New York Center
01:52PM 40.3269 -73.2647 131° Southeast 402 463 18,500 2,400 Climbing New York Center
01:53PM 40.2481 -73.1558 133° Southeast 407 468 21,000 2,400 Climbing New York Center
01:54PM 40.1650 -73.0417 134° Southeast 412 474 23,400 2,340 Climbing New York Center
01:55PM 40.0775 -72.9222 134° Southeast 429 494 25,800 2,220 Climbing New York Center
01:56PM 39.9983 -72.8139 134° Southeast 450 518 27,900 1,920 Climbing New York Center
01:57PM 39.9086 -72.6869 133° Southeast 461 531 29,600 2,400 Climbing New York Center
01:58PM 39.8189 -72.5656 134° Southeast 461 531 32,700 2,820 Climbing New York Center
01:59PM 39.7311 -72.4472 134° Southeast 456 525 35,400 1,860 Climbing New York Center
02:00PM 39.6450 -72.3344 135° Southeast 451 519 36,500 1,680 Climbing New York Center
02:01PM 39.5592 -72.2167 133° Southeast 451 519 38,800 1,680 Climbing New York Center
02:02PM 39.4769 -72.1047 134° Southeast 439 505 40,000 1,020 Climbing New York Center
02:03PM 39.3928 -71.9903 134° Southeast 439 505 40,900 480 Climbing New York Center
02:04PM 39.3044 -71.8733 134° Southeast 439 505 41,000  Climbing New York Center
02:05PM 39.2139 -71.7514 134° Southeast 444 511 41,000  Level New York Center
02:06PM 39.1231 -71.6322 134° Southeast 460 529 41,000  Level New York Center
02:07PM 39.0322 -71.5161 135° Southeast 460 529 41,000  Level New York Center
02:08PM 38.9433 -71.3978 134° Southeast 460 529 41,000  Level New York Center
02:09PM 38.8500 -71.2850 137° Southeast 460 529 41,000  Level New York Center
02:10PM 38.7650 -71.1644 132° Southeast 460 529 41,000  Level New York Center
02:11PM 38.6758 -71.0469 134° Southeast 460 529 41,000  Level New York Center
02:12PM 38.5842 -70.9347 136° Southeast 460 529 41,000  Level New York Center
02:13PM 38.4967 -70.8125 132° Southeast 455 524 41,000  Level New York Center
02:14PM 38.4050 -70.7039 137° Southeast 456 525 41,000  Level New York Center
02:15PM 38.3194 -70.5847 132° Southeast 456 525 41,000  Level New York Center
02:16PM 38.2297 -70.4764 136° Southeast 449 517 41,000  Level New York Center
02:17PM 38.1397 -70.3764 139° Southeast 442 509 41,000  Level New York Center
02:18PM 38.0558 -70.2608 133° Southeast 442 509 41,000  Level New York Center
02:19PM 37.9781 -70.1322 127° Southeast 442 509 41,000  Level New York Center
02:21PM 37.8090 -69.9119 133° Southeast  Level FlightAware Approximate
02:28PM 37.2066 -69.1181 133° Southeast  Level FlightAware Approximate
02:29PM 37.1202 -69.0057 134° Southeast  Level FlightAware Approximate
02:30PM 37.0336 -68.8936 134° Southeast  Level FlightAware Approximate
02:31PM 36.9469 -68.7818 134° Southeast  Level FlightAware Approximate
02:32PM 36.8605 -68.6697 133° Southeast  Level FlightAware Approximate
02:33PM 36.7749 -68.5567 133° Southeast  Level FlightAware Approximate
02:34PM 36.6893 -68.4440 133° Southeast  Level FlightAware Approximate
02:35PM 36.6035 -68.3315 134° Southeast  Level FlightAware Approximate
02:36PM 36.5110 -68.2284 142° Southeast  Level FlightAware Approximate
02:36PM 36.5667 -68.2833 142° Southeast 429 494 41,000  Level New York Oceanic (ODAPS)
02:37PM 36.4134 -68.1324 142° Southeast  Level FlightAware Approximate
02:38PM 36.3157 -68.0366 142° Southeast  Level FlightAware Approximate
02:39PM 36.2179 -67.9410 142° Southeast  Level FlightAware Approximate
02:40PM 36.1201 -67.8456 142° Southeast  Level FlightAware Approximate
02:41PM 36.0221 -67.7505 142° Southeast  Level FlightAware Approximate
02:42PM 35.9241 -67.6557 142° Southeast  Level FlightAware Approximate
02:43PM 35.7194 -67.4664 142° Southeast 429 494 41,000  Level FlightAware Transoceanic
02:44PM 35.6249 -67.3767 142° Southeast 429 494 41,000  Level FlightAware Transoceanic
02:45PM 35.5303 -67.2872 142° Southeast 429 494 41,000  Level FlightAware Transoceanic
02:46PM 35.4357 -67.1979 142° Southeast 429 494 41,000  Level FlightAware Transoceanic
02:47PM 35.3410 -67.1089 143° Southeast 429 494 41,000  Level FlightAware Transoceanic
02:48PM 35.2463 -67.0200 143° Southeast 429 494 41,000  Level FlightAware Transoceanic
02:49PM 35.1515 -66.9314 143° Southeast 429 494 41,000  Level FlightAware Transoceanic
02:50PM 35.0566 -66.8429 143° Southeast 429 494 41,000  Level FlightAware Transoceanic
02:51PM 34.9617 -66.7547 143° Southeast 429 494 41,000  Level FlightAware Transoceanic
02:52PM 34.8667 -66.6667 159° South 429 494 41,000  Level FlightAware Transoceanic
02:52PM 34.8667 -66.6667 159° South 456 525 41,000  Level New York Oceanic (ODAPS)
02:53PM 34.7476 -66.6124 160° South 429 494 41,000  Level FlightAware Transoceanic
02:54PM 34.6285 -66.5583 160° South 429 494 41,000  Level FlightAware Transoceanic
02:55PM 34.5094 -66.5043 160° South 429 494 41,000  Level FlightAware Transoceanic
02:56PM 34.3902 -66.4505 160° South 429 494 41,000  Level FlightAware Transoceanic
02:57PM 34.2710 -66.3969 160° South 429 494 41,000  Level FlightAware Transoceanic
02:58PM 34.1518 -66.3434 160° South 456 525 41,000  Level FlightAware Transoceanic
02:59PM 34.0326 -66.2901 160° South 456 525 41,000  Level FlightAware Transoceanic
03:00PM 33.9134 -66.2369 160° South 456 525 41,000  Level FlightAware Transoceanic
03:01PM 33.7941 -66.1838 160° South 456 525 41,000  Level FlightAware Transoceanic
03:02PM 33.6748 -66.1309 160° South 456 525 41,000  Level FlightAware Transoceanic
03:03PM 33.5555 -66.0782 160° South 456 525 41,000  Level FlightAware Transoceanic
03:04PM 33.4362 -66.0256 160° South 456 525 41,000  Level FlightAware Transoceanic
03:05PM 33.3168 -65.9731 160° South 456 525 41,000  Level FlightAware Transoceanic
03:06PM 33.1974 -65.9208 160° South 456 525 41,000  Level FlightAware Transoceanic
03:07PM 33.0780 -65.8686 160° South 456 525 41,000  Level FlightAware Transoceanic
03:08PM 32.9586 -65.8166 160° South 456 525 41,000  Level FlightAware Transoceanic
03:09PM 32.8392 -65.7647 160° South 456 525 41,000  Level FlightAware Transoceanic
03:10PM 32.7197 -65.7129 160° South 456 525 41,000  Level FlightAware Transoceanic
03:11PM 32.6002 -65.6613 160° South 456 525 41,000  Level FlightAware Transoceanic
03:12PM 32.4807 -65.6098 160° South 456 525 41,000  Level FlightAware Transoceanic
03:13PM 32.3612 -65.5585 160° South 456 525 41,000  Level FlightAware Transoceanic
03:14PM 32.2417 -65.5073 160° South 456 525 41,000  Level FlightAware Transoceanic
03:15PM 32.1221 -65.4562 160° South 456 525 41,000  Level FlightAware Transoceanic
03:16PM 32.0025 -65.4053 160° South 456 525 41,000  Level FlightAware Transoceanic
03:17PM 31.8829 -65.3545 160° South 456 525 41,000  Level FlightAware Transoceanic
03:18PM 31.7633 -65.3038 160° South 456 525 41,000  Level FlightAware Transoceanic
03:19PM 31.6436 -65.2533 160° South 456 525 41,000  Level FlightAware Transoceanic
03:20PM 31.5239 -65.2029 160° South 456 525 41,000  Level FlightAware Transoceanic
03:21PM 31.4042 -65.1526 160° South 456 525 41,000  Level FlightAware Transoceanic
03:22PM 31.2845 -65.1024 160° South 456 525 41,000  Level FlightAware Transoceanic
03:23PM 31.1648 -65.0524 160° South 456 525 41,000  Level FlightAware Transoceanic
03:24PM 31.0451 -65.0025 160° South 456 525 41,000  Level FlightAware Transoceanic
03:25PM 30.9253 -64.9527 160° South 456 525 41,000  Level FlightAware Transoceanic
03:26PM 30.8055 -64.9031 160° South 456 525 41,000  Level FlightAware Transoceanic
03:27PM 30.6857 -64.8536 160° South 456 525 41,000  Level FlightAware Transoceanic
03:28PM 30.5659 -64.8042 160° South 456 525 41,000  Level FlightAware Transoceanic
03:29PM 30.4461 -64.7549 161° South 456 525 41,000  Level FlightAware Transoceanic
03:30PM 30.3262 -64.7057 161° South 456 525 41,000  Level FlightAware Transoceanic
03:31PM 30.2063 -64.6567 161° South 456 525 41,000  Level FlightAware Transoceanic
03:32PM 30.0864 -64.6077 161° South 456 525 41,000  Level FlightAware Transoceanic
03:33PM 29.9665 -64.5589 161° South 456 525 41,000  Level FlightAware Transoceanic
03:34PM 29.8466 -64.5102 161° South 456 525 41,000  Level FlightAware Transoceanic
03:35PM 29.7266 -64.4617 161° South 456 525 41,000  Level FlightAware Transoceanic
03:36PM 29.6066 -64.4132 161° South 456 525 41,000  Level FlightAware Transoceanic
03:37PM 29.4867 -64.3649 161° South 456 525 41,000  Level FlightAware Transoceanic
03:38PM 29.3667 -64.3167 169° South 456 525 41,000  Level FlightAware Transoceanic
03:39PM 29.2393 -64.2877 169° South 456 525 41,000  Level FlightAware Transoceanic
03:40PM 29.1118 -64.2588 169° South 456 525 41,000  Level FlightAware Transoceanic
03:41PM 28.9844 -64.2299 169° South 456 525 41,000  Level FlightAware Transoceanic
03:42PM 28.8570 -64.2011 169° South 456 525 41,000  Level FlightAware Transoceanic
03:43PM 28.7295 -64.1724 169° South 456 525 41,000  Level FlightAware Transoceanic
03:44PM 28.6021 -64.1438 169° South 456 525 41,000  Level FlightAware Transoceanic
03:45PM 28.4747 -64.1152 169° South 456 525 41,000  Level FlightAware Transoceanic
03:45PM 29.3667 -64.3167 169° South 466 536 41,000  Level New York Oceanic (ODAPS)
03:46PM 28.3472 -64.0867 169° South 456 525 41,000  Level FlightAware Transoceanic
03:47PM 28.2197 -64.0583 169° South 456 525 41,000  Level FlightAware Transoceanic
03:48PM 28.0923 -64.0300 169° South 456 525 41,000  Level FlightAware Transoceanic
03:49PM 27.9648 -64.0016 169° South 456 525 41,000  Level FlightAware Transoceanic
03:50PM 27.8373 -63.9734 169° South 456 525 41,000  Level FlightAware Transoceanic
03:51PM 27.7099 -63.9453 169° South 456 525 41,000  Level FlightAware Transoceanic
03:52PM 27.4549 -63.8891 169° South 466 536 41,000  Level FlightAware Transoceanic
03:53PM 27.3274 -63.8612 169° South 466 536 41,000  Level FlightAware Transoceanic
03:54PM 27.1999 -63.8333 169° South 466 536 41,000  Level FlightAware Transoceanic
03:55PM 27.0724 -63.8054 169° South 466 536 41,000  Level FlightAware Transoceanic
03:56PM 26.9448 -63.7777 169° South 466 536 41,000  Level FlightAware Transoceanic
03:57PM 26.8173 -63.7500 169° South 466 536 41,000  Level FlightAware Transoceanic
03:58PM 26.6898 -63.7223 169° South 466 536 41,000  Level FlightAware Transoceanic
03:59PM 26.5623 -63.6947 169° South 466 536 41,000  Level FlightAware Transoceanic
04:00PM 26.4347 -63.6672 169° South 466 536 41,000  Level FlightAware Transoceanic
04:01PM 26.3072 -63.6397 169° South 466 536 41,000  Level FlightAware Transoceanic
04:02PM 26.1796 -63.6123 169° South 466 536 41,000  Level FlightAware Transoceanic
04:03PM 26.0521 -63.5850 169° South 466 536 41,000  Level FlightAware Transoceanic
04:04PM 25.9245 -63.5577 169° South 466 536 41,000  Level FlightAware Transoceanic
04:05PM 25.7970 -63.5305 169° South 466 536 41,000  Level FlightAware Transoceanic
04:06PM 25.6694 -63.5033 169° South 466 536 41,000  Level FlightAware Transoceanic
04:07PM 25.5418 -63.4762 169° South 466 536 41,000  Level FlightAware Transoceanic
04:08PM 25.4142 -63.4492 169° South 466 536 41,000  Level FlightAware Transoceanic
04:09PM 25.2867 -63.4222 169° South 466 536 41,000  Level FlightAware Transoceanic
04:10PM 25.1591 -63.3952 169° South 466 536 41,000  Level FlightAware Transoceanic
04:11PM 25.0315 -63.3683 169° South 466 536 41,000  Level FlightAware Transoceanic
04:12PM 24.9039 -63.3415 169° South 466 536 41,000  Level FlightAware Transoceanic
04:13PM 24.7763 -63.3147 169° South 466 536 41,000  Level FlightAware Transoceanic
04:14PM 24.6487 -63.2880 169° South 466 536 41,000  Level FlightAware Transoceanic
04:15PM 24.5211 -63.2614 169° South 466 536 41,000  Level FlightAware Transoceanic
04:16PM 24.3934 -63.2348 169° South 466 536 41,000  Level FlightAware Transoceanic
04:17PM 24.2658 -63.2082 169° South 466 536 41,000  Level FlightAware Transoceanic
04:18PM 24.1382 -63.1817 169° South 466 536 41,000  Level FlightAware Transoceanic
04:19PM 24.0106 -63.1553 169° South 466 536 41,000  Level FlightAware Transoceanic
04:20PM 23.8829 -63.1289 169° South 466 536 41,000  Level FlightAware Transoceanic
04:21PM 23.7553 -63.1025 169° South 466 536 41,000  Level FlightAware Transoceanic
04:22PM 23.6276 -63.0762 169° South 466 536 41,000  Level FlightAware Transoceanic
04:23PM 23.5000 -63.0500 169° South 466 536 41,000  Level FlightAware Transoceanic
04:24PM 23.3711 -63.0234 169° South 466 536 41,000  Level FlightAware Transoceanic
04:25PM 23.2421 -62.9968 169° South 466 536 41,000  Level FlightAware Transoceanic
04:26PM 23.1132 -62.9703 169° South 466 536 41,000  Level FlightAware Transoceanic
04:27PM 22.9842 -62.9438 169° South 466 536 41,000  Level FlightAware Transoceanic
04:27PM 23.5000 -63.0500 169° South 490 564 41,000  Level New York Oceanic (ODAPS)
04:28PM 22.8553 -62.9174 169° South 466 536 41,000  Level FlightAware Transoceanic
04:29PM 22.7263 -62.8910 169° South 466 536 41,000  Level FlightAware Transoceanic
04:30PM 22.5973 -62.8647 169° South 466 536 41,000  Level FlightAware Transoceanic
04:31PM 22.4684 -62.8384 169° South 466 536 41,000  Level FlightAware Transoceanic
04:32PM 22.3394 -62.8122 169° South 466 536 41,000  Level FlightAware Transoceanic
04:33PM 22.0169 -62.7469 169° South 490 564 41,000  Level FlightAware Transoceanic
04:34PM 21.8821 -62.7196 169° South 490 564 41,000  Level FlightAware Transoceanic
04:35PM 21.7472 -62.6924 169° South 490 564 41,000  Level FlightAware Transoceanic
04:36PM 21.6124 -62.6653 169° South 490 564 41,000  Level FlightAware Transoceanic
04:37PM 21.4775 -62.6382 169° South 490 564 41,000  Level FlightAware Transoceanic
04:38PM 21.3426 -62.6112 169° South 490 564 41,000  Level FlightAware Transoceanic
04:39PM 21.2078 -62.5842 169° South 490 564 41,000  Level FlightAware Transoceanic
04:40PM 21.0729 -62.5573 169° South 490 564 41,000  Level FlightAware Transoceanic
04:41PM 20.9380 -62.5304 169° South 490 564 41,000  Level FlightAware Transoceanic
04:42PM 20.8031 -62.5035 169° South 490 564 41,000  Level FlightAware Transoceanic
04:43PM 20.6682 -62.4767 169° South 490 564 41,000  Level FlightAware Transoceanic
04:44PM 20.5333 -62.4500 170° South 490 564 41,000  Level FlightAware Transoceanic
04:45PM 20.4000 -62.4242 170° South 490 564 41,000  Level FlightAware Transoceanic
04:45PM 20.4333 -62.4333 170° South 480 552 41,000  Level San Juan Center
04:46PM 20.2667 -62.3984 170° South 490 564 41,000  Level FlightAware Transoceanic
04:46PM 20.3000 -62.4000 167° South 480 552 41,000  Level San Juan Center
04:47PM 20.1334 -62.3727 170° South 490 564 41,000  Level FlightAware Transoceanic
04:47PM 20.1667 -62.3833 173° South 470 541 41,000  Level San Juan Center
04:48PM 20.0001 -62.3470 170° South 490 564 41,000  Level FlightAware Transoceanic
04:48PM 20.0333 -62.3500 167° South 470 541 41,000  Level San Juan Center
04:49PM 19.8668 -62.3213 170° South 490 564 41,000  Level FlightAware Transoceanic
04:49PM 19.9167 -62.3333 172° South 470 541 41,000  Level San Juan Center
04:50PM 19.7335 -62.2957 170° South 490 564 41,000  Level FlightAware Transoceanic
04:50PM 19.7833 -62.3000 167° South 480 552 41,000  Level San Juan Center
04:51PM 19.6001 -62.2702 170° South 490 564 41,000  Level FlightAware Transoceanic
04:51PM 19.6500 -62.2833 173° South 470 541 41,000  Level San Juan Center
04:52PM 19.5167 -62.2500 167° South 480 552 41,000  Level San Juan Center
04:53PM 19.3833 -62.2333 173° South 470 541 41,000  Level San Juan Center
04:54PM 19.2667 -62.2000 165° South 460 529 41,000  Level San Juan Center
04:55PM 19.1333 -62.1833 173° South 470 541 41,000  Level San Juan Center
04:56PM 19.0000 -62.1500 167° South 470 541 41,000  Level San Juan Center
04:57PM 18.8667 -62.1333 173° South 480 552 41,000  Level San Juan Center
04:58PM 18.7333 -62.1000 167° South 480 552 41,000  Level San Juan Center
04:59PM 18.6000 -62.0667 167° South 480 552 41,000  Level San Juan Center
05:00PM 18.4667 -62.0500 173° South 480 552 41,000  Level San Juan Center
05:01PM 18.3333 -62.0167 167° South 480 552 41,000  Level San Juan Center
05:02PM 18.2000 -62.0000 173° South 490 564 41,000  Level San Juan Center
05:03PM 18.0667 -61.9667 167° South 480 552 41,000  Level San Juan Center
05:04PM 17.9333 -61.9333 167° South 500 575 41,000  Level San Juan Center
05:05PM 17.8167 -61.8667 151° Southeast 490 564 41,000  Level San Juan Center
05:06PM 17.7000 -61.8000 151° Southeast 490 564 41,000  Level San Juan Center
05:08PM 17.5542 -61.8000 180° South  Level FlightAware Approximate
05:15PM 16.7330 -61.5665 151° Southeast  Level FlightAware Approximate
05:16PM 16.6238 -61.5030 151° Southeast  Level FlightAware Approximate
05:17PM 16.5146 -61.4396 151° Southeast  Level FlightAware Approximate
05:18PM 16.4053 -61.3762 151° Southeast  Level FlightAware Approximate
05:19PM 16.2960 -61.3129 151° Southeast  Level FlightAware Approximate
05:20PM 16.1868 -61.2497 151° Southeast  Level FlightAware Approximate
05:21PM 16.0775 -61.1866 151° Southeast  Level FlightAware Approximate
05:22PM 15.9682 -61.1235 151° Southeast  Level FlightAware Approximate
05:23PM 15.8588 -61.0605 151° Southeast  Level FlightAware Approximate
05:24PM 15.7494 -60.9976 151° Southeast  Level FlightAware Approximate
05:25PM 15.6403 -60.9344 150° Southeast  Level FlightAware Approximate
05:26PM 15.5316 -60.8701 150° Southeast  Level FlightAware Approximate
05:27PM 15.4230 -60.8059 150° Southeast  Level FlightAware Approximate
05:28PM 15.3144 -60.7418 150° Southeast  Level FlightAware Approximate
05:29PM 15.2061 -60.6770 150° Southeast  Level FlightAware Approximate
05:30PM 15.0959 -60.6163 156° South  Level FlightAware Approximate
05:31PM 14.9815 -60.5643 156° South  Level FlightAware Approximate
05:32PM 14.8728 -60.5008 148° Southeast  Level FlightAware Approximate
05:33PM 14.7663 -60.4331 150° Southeast  Level FlightAware Approximate
05:34PM 14.6572 -60.3702 154° Southeast  Level FlightAware Approximate
05:35PM 14.5470 -60.3093 151° Southeast  Level FlightAware Approximate
05:36PM 14.4381 -60.2458 151° Southeast  Level FlightAware Approximate
05:37PM 14.3268 -60.1873 152° Southeast  Level FlightAware Approximate
05:38PM 14.2163 -60.1270 152° Southeast  Level FlightAware Approximate
05:39PM 14.1067 -60.0650 150° Southeast  Level FlightAware Approximate
05:40PM 13.9979 -60.0015 150° Southeast  Level FlightAware Approximate
05:41PM 13.8891 -59.9380 150° Southeast  Level FlightAware Approximate
05:42PM 13.7803 -59.8746 150° Southeast  Level FlightAware Approximate
05:43PM 13.6705 -59.8132 152° Southeast  Level FlightAware Approximate
05:44PM 13.5603 -59.7526 152° Southeast  Level FlightAware Approximate
05:45PM 13.4498 -59.6923 152° Southeast  Level FlightAware Approximate
05:46PM 13.3398 -59.6314 152° Southeast  Level FlightAware Approximate
05:47PM 13.2287 -59.5727 154° Southeast  Level FlightAware Approximate
05:48PM 13.1205 -59.5103 154° Southeast  Level FlightAware Approximate
05:49PM 13.0746 -59.4925 90° East  Level Estimated
05:50PM 13.0746 -59.4925 90° East  Level Estimated
05:51PM 13.0746 -59.4925 90° East  Level Estimated
05:52PM 13.0746 -59.4925 90° East  Level Estimated
05:53PM 13.0746 -59.4925 90° East  Level Estimated
05:54PM 13.0746 -59.4925 90° East  Level Estimated
05:55PM 13.0746 -59.4925 90° East  Level Estimated
05:56PM 13.0746 -59.4925 90° East  Level Estimated
05:57PM 13.0746 -59.4925 90° East  Level Estimated
05:58PM 13.0746 -59.4925 90° East  Level Estimated
05:59PM 13.0746 -59.4925 90° East  Level Estimated
06:00PM 13.0746 -59.4925 90° East  Level Estimated
06:01PM 13.0746 -59.4925 90° East  Level Estimated
06:02PM 13.0746 -59.4925 90° East  Level Estimated
06:03PM 13.0746 -59.4925 90° East  Level Estimated
06:04PM 13.0746 -59.4925 90° East  Level Estimated
06:05PM 13.0746 -59.4925 90° East  Level Estimated
06:06PM 13.0746 -59.4925 90° East  Level Estimated
06:07PM 13.0746 -59.4925 90° East  Level Estimated
06:08PM 13.0746 -59.4925 90° East  Level Estimated
06:09PM 13.0746 -59.4925 90° East  Level Estimated